createdAt,value
2019-05-21T00:00:28.080Z,10.20
2019-05-21T00:02:57.369Z,10.20
2019-05-21T00:05:26.585Z,10.20
2019-05-21T00:07:55.652Z,10.20
2019-05-21T00:10:24.520Z,10.20
2019-05-21T00:12:53.568Z,10.30
2019-05-21T00:15:22.840Z,10.30
2019-05-21T00:17:51.913Z,10.30
2019-05-21T00:20:22.696Z,10.30
2019-05-21T00:22:51.744Z,10.30
2019-05-21T00:25:20.720Z,10.40
2019-05-21T00:27:49.808Z,10.40
2019-05-21T00:30:54.952Z,10.40
2019-05-21T00:34:00.080Z,10.40
2019-05-21T00:37:07.025Z,10.40
2019-05-21T00:40:12.795Z,10.40
2019-05-21T00:42:44.352Z,10.40
2019-05-21T00:45:13.751Z,10.40
2019-05-21T00:47:42.848Z,10.40
2019-05-21T00:50:12.712Z,10.40
2019-05-21T00:52:41.671Z,10.30
2019-05-21T00:55:10.848Z,10.30
2019-05-21T00:57:39.951Z,10.30
2019-05-21T01:00:09.685Z,10.30
2019-05-21T01:02:39.064Z,10.30
2019-05-21T01:05:07.912Z,10.30
2019-05-21T01:07:36.976Z,10.30
2019-05-21T01:10:09.136Z,10.30
2019-05-21T01:12:38.206Z,10.30
2019-05-21T01:15:08.354Z,10.30
2019-05-21T01:17:37.344Z,10.20
2019-05-21T01:20:07.668Z,10.20
2019-05-21T01:22:36.696Z,10.30
2019-05-21T01:25:06.724Z,10.30
2019-05-21T01:27:35.746Z,10.30
2019-05-21T01:30:06.031Z,10.30
2019-05-21T01:32:35.056Z,10.30
2019-05-21T01:35:16.697Z,10.30
2019-05-21T01:37:36.649Z,10.30
2019-05-21T01:40:07.352Z,10.30
2019-05-21T01:42:36.423Z,10.30
2019-05-21T01:45:07.136Z,10.30
2019-05-21T01:47:36.504Z,10.30
2019-05-21T01:50:06.625Z,10.30
2019-05-21T01:52:35.746Z,10.30
2019-05-21T01:55:05.890Z,10.30
2019-05-21T01:57:34.887Z,10.30
2019-05-21T02:00:06.255Z,10.30
2019-05-21T02:02:36.104Z,10.30
2019-05-21T02:05:06.928Z,10.30
2019-05-21T02:07:36.374Z,10.30
2019-05-21T02:10:07.233Z,10.30
2019-05-21T02:12:36.336Z,10.30
2019-05-21T02:15:07.475Z,10.30
2019-05-21T02:17:36.423Z,10.30
2019-05-21T02:20:07.508Z,10.20
2019-05-21T02:22:36.842Z,10.20
2019-05-21T02:25:07.874Z,10.10
2019-05-21T02:27:37.224Z,10.10
2019-05-21T02:30:08.421Z,10.10
2019-05-21T02:32:38.589Z,10.10
2019-05-21T02:35:07.813Z,10.10
2019-05-21T02:37:36.924Z,10.10
2019-05-21T02:40:09.702Z,10.10
2019-05-21T02:42:39.045Z,10.10
2019-05-21T02:45:09.533Z,10.10
2019-05-21T02:47:38.505Z,10.10
2019-05-21T02:50:09.128Z,10.00
2019-05-21T02:52:38.050Z,10.10
2019-05-21T02:55:07.614Z,10.00
2019-05-21T02:57:41.250Z,10.00
2019-05-21T03:00:17.379Z,10.00
2019-05-21T03:02:46.328Z,10.00
2019-05-21T03:05:15.567Z,10.00
2019-05-21T03:07:46.802Z,10.00
2019-05-21T03:10:16.624Z,9.90
2019-05-21T03:12:47.516Z,9.90
2019-05-21T03:15:16.748Z,9.90
2019-05-21T03:17:45.762Z,9.90
2019-05-21T03:20:15.402Z,9.80
2019-05-21T03:22:44.540Z,9.80
2019-05-21T03:25:13.745Z,9.80
2019-05-21T03:27:42.731Z,9.80
2019-05-21T03:30:13.330Z,9.80
2019-05-21T03:32:42.361Z,9.80
2019-05-21T03:35:14.530Z,9.80
2019-05-21T03:37:43.457Z,9.80
2019-05-21T03:40:13.169Z,9.70
2019-05-21T03:42:42.186Z,9.70
2019-05-21T03:45:11.994Z,9.70
2019-05-21T03:47:40.928Z,9.60
2019-05-21T03:50:11.480Z,9.60
2019-05-21T03:52:40.432Z,9.60
2019-05-21T03:55:09.544Z,9.60
2019-05-21T03:57:38.420Z,9.60
2019-05-21T04:00:09.352Z,9.50
2019-05-21T04:02:38.289Z,9.50
2019-05-21T04:05:07.498Z,9.50
2019-05-21T04:07:36.541Z,9.50
2019-05-21T04:10:14.252Z,9.40
2019-05-21T04:12:44.865Z,9.40
2019-05-21T04:15:22.217Z,9.30
2019-05-21T04:17:58.545Z,9.30
2019-05-21T04:20:27.617Z,9.30
2019-05-21T04:22:57.001Z,9.30
2019-05-21T04:25:25.953Z,9.20
2019-05-21T04:27:54.817Z,9.20
2019-05-21T04:30:23.864Z,9.20
2019-05-21T04:32:52.753Z,9.20
2019-05-21T04:35:21.753Z,9.20
2019-05-21T04:37:50.616Z,9.20
2019-05-21T04:40:19.662Z,9.20
2019-05-21T04:42:48.736Z,9.20
2019-05-21T04:45:17.689Z,9.20
2019-05-21T04:47:47.505Z,9.20
2019-05-21T04:50:16.474Z,9.20
2019-05-21T04:52:45.400Z,9.10
2019-05-21T04:55:14.441Z,9.10
2019-05-21T04:57:43.424Z,9.20
2019-05-21T05:00:12.610Z,9.20
2019-05-21T05:02:41.555Z,9.20
2019-05-21T05:05:10.489Z,9.20
2019-05-21T05:07:39.417Z,9.20
2019-05-21T05:10:08.889Z,9.20
2019-05-21T05:12:37.794Z,9.20
2019-05-21T05:15:07.416Z,9.20
2019-05-21T05:17:36.499Z,9.20
2019-05-21T05:20:06.145Z,9.20
2019-05-21T05:22:35.066Z,9.20
2019-05-21T05:25:05.440Z,9.20
2019-05-21T05:27:34.495Z,9.20
2019-05-21T05:30:05.249Z,9.20
2019-05-21T05:32:34.208Z,9.20
2019-05-21T05:35:04.841Z,9.20
2019-05-21T05:37:43.357Z,9.20
2019-05-21T05:40:07.011Z,9.20
2019-05-21T05:42:35.903Z,9.20
2019-05-21T05:45:06.480Z,9.20
2019-05-21T05:47:35.432Z,9.10
2019-05-21T05:50:19.352Z,9.10
2019-05-21T05:52:48.755Z,9.10
2019-05-21T05:55:17.824Z,9.10
2019-05-21T05:57:46.841Z,9.10
2019-05-21T06:00:16.641Z,9.10
2019-05-21T06:02:45.650Z,9.10
2019-05-21T06:05:15.416Z,9.10
2019-05-21T06:07:57.302Z,9.20
2019-05-21T06:10:15.249Z,9.20
2019-05-21T06:12:44.374Z,9.20
2019-05-21T06:15:13.480Z,9.20
2019-05-21T06:17:42.452Z,9.30
2019-05-21T06:20:11.682Z,9.30
2019-05-21T06:22:40.739Z,9.30
2019-05-21T06:25:10.497Z,9.50
2019-05-21T06:27:39.634Z,9.60
2019-05-21T06:30:09.112Z,9.60
2019-05-21T06:32:37.968Z,9.60
2019-05-21T06:35:07.896Z,9.70
2019-05-21T06:37:36.841Z,9.70
2019-05-21T06:40:06.304Z,9.80
2019-05-21T06:42:35.328Z,9.70
2019-05-21T06:45:06.643Z,9.70
2019-05-21T06:47:35.823Z,9.70
2019-05-21T06:50:06.561Z,9.70
2019-05-21T06:52:35.513Z,9.70
2019-05-21T06:55:05.592Z,9.70
2019-05-21T06:57:34.528Z,9.70
2019-05-21T07:00:04.849Z,9.70
2019-05-21T07:02:33.923Z,9.70
2019-05-21T07:05:02.980Z,9.70
2019-05-21T07:07:31.906Z,9.70
2019-05-21T07:10:00.808Z,9.80
2019-05-21T07:12:30.161Z,9.70
2019-05-21T07:14:59.561Z,9.70
2019-05-21T07:17:28.529Z,9.70
2019-05-21T07:19:57.833Z,9.70
2019-05-21T07:22:26.841Z,9.70
2019-05-21T07:24:55.803Z,9.60
2019-05-21T07:27:24.649Z,9.60
2019-05-21T07:29:53.704Z,9.60
2019-05-21T07:32:22.730Z,9.60
2019-05-21T07:34:51.646Z,9.50
2019-05-21T07:37:20.577Z,9.50
2019-05-21T07:39:49.609Z,9.40
2019-05-21T07:42:18.722Z,9.40
2019-05-21T07:44:48.011Z,9.40
2019-05-21T07:47:16.961Z,9.50
2019-05-21T07:49:46.514Z,9.60
2019-05-21T07:52:15.866Z,9.60
2019-05-21T07:54:47.656Z,9.60
2019-05-21T07:57:19.523Z,9.70
2019-05-21T07:59:49.048Z,9.80
2019-05-21T08:02:18.252Z,9.80
2019-05-21T08:04:47.275Z,9.80
2019-05-21T08:07:16.660Z,9.90
2019-05-21T08:09:45.801Z,10.00
2019-05-21T08:12:36.756Z,10.00
2019-05-21T08:14:47.207Z,10.10
2019-05-21T08:17:16.874Z,10.10
2019-05-21T08:19:46.032Z,10.10
2019-05-21T08:22:15.304Z,10.00
2019-05-21T08:24:44.291Z,10.10
2019-05-21T08:27:13.152Z,10.10
2019-05-21T08:29:42.489Z,10.10
2019-05-21T08:32:11.519Z,10.20
2019-05-21T08:34:40.425Z,10.30
2019-05-21T08:37:09.473Z,10.40
2019-05-21T08:39:38.594Z,10.40
2019-05-21T08:42:07.704Z,10.40
2019-05-21T08:44:36.624Z,10.40
2019-05-21T08:47:05.529Z,10.40
2019-05-21T08:49:34.592Z,10.40
2019-05-21T08:52:03.600Z,10.40
2019-05-21T08:54:49.753Z,10.30
2019-05-21T08:57:18.954Z,10.30
2019-05-21T08:59:48.864Z,10.30
2019-05-21T09:02:18.334Z,10.20
2019-05-21T09:04:47.417Z,10.20
2019-05-21T09:07:16.536Z,10.30
2019-05-21T09:09:51.346Z,10.30
2019-05-21T09:12:16.293Z,10.20
2019-05-21T09:14:45.299Z,10.20
2019-05-21T09:17:14.367Z,10.30
2019-05-21T09:19:43.264Z,10.30
2019-05-21T09:22:12.335Z,10.30
2019-05-21T09:24:41.250Z,10.30
2019-05-21T09:27:10.207Z,10.40
2019-05-21T09:29:39.320Z,10.40
2019-05-21T09:32:08.644Z,10.50
2019-05-21T09:34:48.025Z,10.40
2019-05-21T09:37:19.250Z,10.50
2019-05-21T09:39:39.495Z,10.50
2019-05-21T09:42:08.760Z,10.70
2019-05-21T09:44:37.760Z,10.70
2019-05-21T09:47:14.553Z,10.80
2019-05-21T09:49:39.824Z,10.80
2019-05-21T09:52:08.848Z,10.90
2019-05-21T09:54:38.033Z,11.00
2019-05-21T09:57:09.170Z,11.00
2019-05-21T09:59:42.904Z,11.00
2019-05-21T10:02:25.869Z,11.00
2019-05-21T10:04:55.329Z,11.20
2019-05-21T10:07:38.842Z,11.60
2019-05-21T10:09:55.368Z,11.50
2019-05-21T10:12:24.593Z,11.50
2019-05-21T10:14:53.708Z,11.50
2019-05-21T10:17:23.050Z,11.50
2019-05-21T10:19:58.788Z,11.60
2019-05-21T10:22:27.641Z,11.50
2019-05-21T10:24:56.691Z,11.40
2019-05-21T10:27:26.136Z,11.50
2019-05-21T10:29:55.160Z,11.40
2019-05-21T10:32:24.216Z,11.20
2019-05-21T10:34:53.364Z,11.30
2019-05-21T10:37:22.625Z,11.00
2019-05-21T10:39:51.552Z,11.00
2019-05-21T10:42:23.647Z,10.90
2019-05-21T10:44:53.225Z,10.90
2019-05-21T10:47:22.288Z,10.70
2019-05-21T10:49:51.535Z,10.80
2019-05-21T10:52:20.513Z,10.90
2019-05-21T10:54:49.668Z,11.00
2019-05-21T10:57:19.261Z,11.10
2019-05-21T10:59:48.488Z,11.30
2019-05-21T11:02:21.970Z,11.30
2019-05-21T11:05:01.961Z,11.20
2019-05-21T11:07:30.992Z,11.10
2019-05-21T11:10:00.441Z,11.20
2019-05-21T11:12:29.705Z,11.20
2019-05-21T11:14:59.081Z,11.10
2019-05-21T11:17:31.275Z,11.10
2019-05-21T11:20:01.070Z,11.10
2019-05-21T11:22:30.248Z,11.30
2019-05-21T11:24:59.593Z,11.40
2019-05-21T11:27:29.073Z,11.50
2019-05-21T11:29:59.185Z,11.30
2019-05-21T11:32:28.948Z,11.40
2019-05-21T11:34:59.817Z,11.70
2019-05-21T11:37:29.419Z,11.80
2019-05-21T11:39:58.836Z,12.00
2019-05-21T11:42:28.044Z,11.60
2019-05-21T11:44:57.025Z,11.50
2019-05-21T11:47:26.024Z,11.80
2019-05-21T11:49:58.842Z,11.60
2019-05-21T11:52:28.272Z,11.80
2019-05-21T11:54:58.851Z,11.90
2019-05-21T11:57:28.273Z,12.10
2019-05-21T11:59:57.688Z,12.30
2019-05-21T12:02:26.970Z,12.30
2019-05-21T12:04:58.321Z,12.30
2019-05-21T12:07:27.929Z,12.30
2019-05-21T12:09:59.098Z,12.30
2019-05-21T12:12:29.313Z,12.30
2019-05-21T12:14:59.354Z,12.10
2019-05-21T12:17:28.762Z,12.20
2019-05-21T12:19:58.352Z,12.60
2019-05-21T12:22:27.650Z,12.40
2019-05-21T12:24:57.058Z,12.20
2019-05-21T12:27:29.491Z,11.90
2019-05-21T12:29:59.105Z,12.10
2019-05-21T12:32:28.737Z,12.30
2019-05-21T12:34:57.881Z,12.20
2019-05-21T12:37:27.379Z,12.30
2019-05-21T12:39:56.624Z,12.70
2019-05-21T12:42:25.763Z,12.60
2019-05-21T12:44:55.186Z,12.20
2019-05-21T12:47:24.444Z,12.60
2019-05-21T12:49:54.158Z,13.10
2019-05-21T12:52:23.288Z,13.40
2019-05-21T12:54:52.379Z,12.90
2019-05-21T12:57:21.466Z,13.30
2019-05-21T12:59:59.600Z,13.50
2019-05-21T13:02:28.745Z,13.10
2019-05-21T13:04:57.712Z,12.80
2019-05-21T13:07:26.735Z,13.00
2019-05-21T13:09:56.090Z,12.50
2019-05-21T13:12:25.241Z,12.90
2019-05-21T13:14:54.208Z,13.30
2019-05-21T13:17:23.112Z,13.20
2019-05-21T13:19:52.030Z,13.90
2019-05-21T13:22:21.555Z,13.70
2019-05-21T13:24:50.516Z,13.10
2019-05-21T13:27:19.567Z,13.20
2019-05-21T13:29:49.043Z,13.50
2019-05-21T13:32:19.236Z,12.90
2019-05-21T13:34:48.696Z,13.10
2019-05-21T13:37:17.890Z,12.70
2019-05-21T13:39:50.251Z,12.50
2019-05-21T13:42:17.584Z,12.70
2019-05-21T13:44:46.756Z,12.60
2019-05-21T13:47:15.960Z,12.70
2019-05-21T13:49:45.024Z,12.90
2019-05-21T13:52:14.288Z,12.70
2019-05-21T13:54:43.258Z,12.90
2019-05-21T13:57:12.907Z,12.80
2019-05-21T13:59:42.665Z,12.80
2019-05-21T14:02:13.361Z,13.00
2019-05-21T14:04:42.794Z,13.30
2019-05-21T14:07:15.390Z,13.30
2019-05-21T14:09:44.729Z,13.30
2019-05-21T14:12:14.857Z,13.50
2019-05-21T14:14:44.554Z,13.60
2019-05-21T14:17:14.216Z,13.60
2019-05-21T14:19:44.222Z,13.50
2019-05-21T14:22:13.906Z,13.30
2019-05-21T14:24:43.004Z,13.80
2019-05-21T14:27:12.320Z,14.00
2019-05-21T14:29:41.373Z,13.80
2019-05-21T14:32:10.321Z,13.70
2019-05-21T14:34:39.233Z,13.50
2019-05-21T14:37:08.200Z,13.50
2019-05-21T14:39:37.858Z,13.50
2019-05-21T14:42:07.179Z,13.90
2019-05-21T14:44:36.162Z,13.60
2019-05-21T14:47:06.493Z,13.20
2019-05-21T14:49:35.829Z,13.10
2019-05-21T14:52:06.193Z,13.10
2019-05-21T14:54:35.258Z,13.10
2019-05-21T14:57:05.900Z,13.30
2019-05-21T14:59:35.059Z,13.40
2019-05-21T15:02:05.185Z,13.40
2019-05-21T15:04:34.984Z,13.30
2019-05-21T15:07:04.502Z,13.20
2019-05-21T15:09:33.561Z,13.20
2019-05-21T15:12:03.505Z,13.10
2019-05-21T15:14:33.202Z,13.10
2019-05-21T15:17:03.097Z,12.80
2019-05-21T15:19:32.648Z,12.70
2019-05-21T15:22:01.953Z,12.70
2019-05-21T15:24:34.165Z,12.70
2019-05-21T15:27:03.489Z,12.80
2019-05-21T15:29:32.945Z,12.70
2019-05-21T15:32:02.028Z,12.70
2019-05-21T15:34:32.584Z,12.60
2019-05-21T15:37:02.088Z,12.70
2019-05-21T15:39:33.064Z,12.70
2019-05-21T15:42:02.329Z,12.90
2019-05-21T15:44:31.596Z,13.10
2019-05-21T15:47:00.638Z,13.10
2019-05-21T15:49:36.232Z,12.90
2019-05-21T15:52:01.953Z,12.60
2019-05-21T15:54:31.428Z,12.50
2019-05-21T15:57:00.456Z,12.40
2019-05-21T15:59:29.632Z,12.40
2019-05-21T16:01:59.145Z,12.30
2019-05-21T16:04:29.025Z,12.20
2019-05-21T16:06:58.187Z,12.40
2019-05-21T16:09:27.673Z,12.40
2019-05-21T16:11:56.928Z,12.70
2019-05-21T16:14:26.304Z,13.00
2019-05-21T16:16:55.512Z,12.90
2019-05-21T16:19:24.868Z,12.90
2019-05-21T16:21:55.585Z,13.20
2019-05-21T16:24:25.700Z,13.70
2019-05-21T16:26:55.051Z,13.80
2019-05-21T16:29:24.668Z,13.30
2019-05-21T16:31:54.488Z,12.70
2019-05-21T16:34:25.553Z,12.30
2019-05-21T16:36:54.766Z,12.10
2019-05-21T16:39:25.753Z,12.00
2019-05-21T16:41:55.314Z,12.00
2019-05-21T16:44:24.857Z,12.20
2019-05-21T16:46:54.722Z,12.60
2019-05-21T16:49:24.868Z,13.00
2019-05-21T16:51:54.248Z,13.10
2019-05-21T16:54:24.360Z,13.50
2019-05-21T16:56:53.497Z,13.30
2019-05-21T16:59:23.091Z,12.90
2019-05-21T17:01:52.213Z,12.60
2019-05-21T17:04:21.335Z,12.60
2019-05-21T17:06:50.551Z,12.70
2019-05-21T17:09:19.977Z,12.70
2019-05-21T17:11:59.643Z,12.80
2019-05-21T17:14:23.033Z,13.30
2019-05-21T17:16:51.920Z,13.40
2019-05-21T17:19:21.112Z,13.70
2019-05-21T17:21:50.312Z,14.00
2019-05-21T17:24:19.361Z,13.90
2019-05-21T17:26:48.344Z,13.90
2019-05-21T17:29:18.433Z,13.90
2019-05-21T17:31:47.393Z,13.70
2019-05-21T17:34:18.193Z,13.60
2019-05-21T17:36:52.629Z,13.40
2019-05-21T17:39:22.018Z,13.50
2019-05-21T17:41:52.106Z,13.70
2019-05-21T17:44:24.800Z,13.40
2019-05-21T17:46:52.977Z,13.20
2019-05-21T17:49:22.175Z,13.10
2019-05-21T17:51:51.505Z,12.80
2019-05-21T17:54:21.049Z,12.90
2019-05-21T17:56:50.545Z,13.20
2019-05-21T17:59:20.552Z,13.40
2019-05-21T18:01:51.633Z,13.30
2019-05-21T18:04:20.602Z,12.90
2019-05-21T18:06:50.368Z,13.20
2019-05-21T18:09:20.665Z,12.90
2019-05-21T18:11:50.304Z,12.70
2019-05-21T18:14:20.129Z,12.60
2019-05-21T18:16:49.725Z,12.50
2019-05-21T18:19:20.417Z,12.50
2019-05-21T18:21:49.729Z,12.30
2019-05-21T18:24:19.118Z,12.20
2019-05-21T18:26:48.876Z,12.10
2019-05-21T18:29:17.792Z,12.00
2019-05-21T18:31:47.745Z,11.90
2019-05-21T18:34:16.760Z,11.90
2019-05-21T18:36:46.144Z,11.80
2019-05-21T18:39:16.216Z,11.80
2019-05-21T18:41:48.937Z,11.70
2019-05-21T18:44:17.947Z,11.60
2019-05-21T18:46:49.585Z,11.60
2019-05-21T18:49:18.545Z,11.60
2019-05-21T18:51:47.548Z,11.50
2019-05-21T18:54:17.513Z,11.50
2019-05-21T18:56:47.097Z,11.40
2019-05-21T18:59:16.064Z,11.40
2019-05-21T19:01:45.288Z,11.40
2019-05-21T19:04:16.577Z,11.40
2019-05-21T19:06:45.616Z,11.30
2019-05-21T19:09:15.089Z,11.30
2019-05-21T19:11:44.650Z,11.20
2019-05-21T19:14:14.032Z,11.30
2019-05-21T19:16:43.064Z,11.20
2019-05-21T19:19:14.928Z,11.10
2019-05-21T19:21:43.851Z,11.00
2019-05-21T19:24:13.272Z,11.00
2019-05-21T19:26:44.130Z,10.90
2019-05-21T19:29:15.401Z,10.70
2019-05-21T19:31:49.305Z,10.50
2019-05-21T19:37:04.858Z,10.30
2019-05-21T19:39:39.905Z,10.20
2019-05-21T19:42:09.757Z,10.20
2019-05-21T19:44:38.849Z,10.10
2019-05-21T19:47:09.802Z,10.00
2019-05-21T19:49:39.257Z,10.00
2019-05-21T19:52:08.580Z,9.90
2019-05-21T19:54:38.397Z,9.80
2019-05-21T19:57:11.576Z,9.70
2019-05-21T19:59:40.841Z,9.60
2019-05-21T20:02:11.169Z,9.60
2019-05-21T20:04:41.249Z,9.50
2019-05-21T20:07:14.073Z,9.40
2019-05-21T20:09:44.831Z,9.30
2019-05-21T20:12:15.897Z,9.30
2019-05-21T20:14:45.984Z,9.30
2019-05-21T20:17:17.658Z,9.20
2019-05-21T20:19:48.314Z,9.20
2019-05-21T20:22:18.905Z,9.20
2019-05-21T20:24:48.147Z,9.10
2019-05-21T20:27:20.440Z,9.10
2019-05-21T20:30:12.188Z,9.00
2019-05-21T20:32:36.441Z,8.90
2019-05-21T20:35:12.233Z,8.80
2019-05-21T20:37:43.370Z,8.70
2019-05-21T20:40:15.722Z,8.70
2019-05-21T20:42:45.816Z,8.60
2019-05-21T20:45:17.986Z,8.50
2019-05-21T20:47:49.504Z,8.40
2019-05-21T20:50:20.233Z,8.40
2019-05-21T20:52:53.392Z,8.30
2019-05-21T20:55:24.705Z,8.30
2019-05-21T20:57:56.640Z,8.20
2019-05-21T21:00:30.813Z,8.20
2019-05-21T21:03:01.043Z,8.20
2019-05-21T21:05:31.273Z,8.20
2019-05-21T21:08:02.616Z,8.30
2019-05-21T21:10:32.262Z,8.30
2019-05-21T21:13:07.153Z,8.40
2019-05-21T21:15:36.848Z,8.50
2019-05-21T21:18:07.217Z,8.50
2019-05-21T21:20:36.705Z,8.60
2019-05-21T21:23:08.243Z,8.60
2019-05-21T21:25:37.913Z,8.70
2019-05-21T21:28:07.616Z,8.70
2019-05-21T21:30:39.089Z,8.70
2019-05-21T21:33:10.258Z,8.70
2019-05-21T21:35:39.672Z,8.70
2019-05-21T21:38:11.713Z,8.70
2019-05-21T21:40:41.856Z,8.60
2019-05-21T21:43:11.217Z,8.50
2019-05-21T21:45:41.185Z,8.40
2019-05-21T21:48:10.952Z,8.40
2019-05-21T21:50:41.920Z,8.40
2019-05-21T21:53:12.081Z,8.30
2019-05-21T21:55:41.858Z,8.30
2019-05-21T21:58:11.429Z,8.30
2019-05-21T22:01:02.410Z,8.30
2019-05-21T22:03:37.032Z,8.30
2019-05-21T22:06:09.232Z,8.30
2019-05-21T22:08:39.489Z,8.30
2019-05-21T22:11:10.289Z,8.30
2019-05-21T22:13:40.297Z,8.40
2019-05-21T22:16:13.657Z,8.40
2019-05-21T22:18:42.936Z,8.40
2019-05-21T22:21:13.314Z,8.50
2019-05-21T22:23:42.857Z,8.50
2019-05-21T22:26:11.960Z,8.50
2019-05-21T22:28:41.208Z,8.50
2019-05-21T22:31:10.559Z,8.50
2019-05-21T22:33:39.736Z,8.40
2019-05-21T22:36:12.504Z,8.30
2019-05-21T22:38:41.944Z,8.30
2019-05-21T22:41:11.360Z,8.20
2019-05-21T22:43:40.416Z,8.10
2019-05-21T22:46:09.842Z,8.00
2019-05-21T22:48:38.936Z,7.90
2019-05-21T22:51:08.297Z,7.80
2019-05-21T22:53:37.601Z,7.70
2019-05-21T22:56:07.113Z,7.70
2019-05-21T22:58:36.208Z,7.60
2019-05-21T23:01:07.226Z,7.50
2019-05-21T23:03:36.296Z,7.40
2019-05-21T23:06:05.554Z,7.30
2019-05-21T23:08:34.744Z,7.30
2019-05-21T23:11:04.193Z,7.20
2019-05-21T23:13:33.451Z,7.00
2019-05-21T23:16:03.249Z,6.90
2019-05-21T23:18:32.576Z,6.80
2019-05-21T23:21:02.755Z,6.70
2019-05-21T23:23:33.928Z,6.70
2019-05-21T23:26:03.232Z,6.70
2019-05-21T23:28:33.553Z,6.70
2019-05-21T23:31:03.834Z,6.60
2019-05-21T23:33:33.553Z,6.60
2019-05-21T23:36:02.765Z,6.60
2019-05-21T23:38:32.688Z,6.50
2019-05-21T23:41:03.944Z,6.50
2019-05-21T23:43:33.152Z,6.40
2019-05-21T23:46:03.138Z,6.30
2019-05-21T23:48:32.169Z,6.30
2019-05-21T23:51:01.488Z,6.30
2019-05-21T23:53:31.065Z,6.30
2019-05-21T23:56:00.156Z,6.30
2019-05-21T23:58:29.344Z,6.30
